sensor_id;sensor_type;location;lat;lon;timestamp;temperature;humidity
913;DHT22;443;51.448;7.028;2023-11-19T00:00:58;14.60;83.30
913;DHT22;443;51.448;7.028;2023-11-19T00:03:25;14.60;83.30
913;DHT22;443;51.448;7.028;2023-11-19T00:05:53;14.60;83.10
913;DHT22;443;51.448;7.028;2023-11-19T00:08:19;14.50;83.40
913;DHT22;443;51.448;7.028;2023-11-19T00:10:49;14.50;83.50
913;DHT22;443;51.448;7.028;2023-11-19T00:13:16;14.50;83.90
913;DHT22;443;51.448;7.028;2023-11-19T00:15:43;14.50;83.60
913;DHT22;443;51.448;7.028;2023-11-19T00:18:10;14.50;83.80
913;DHT22;443;51.448;7.028;2023-11-19T00:20:37;14.40;84.10
913;DHT22;443;51.448;7.028;2023-11-19T00:23:05;14.50;83.90
913;DHT22;443;51.448;7.028;2023-11-19T00:25:33;14.50;84.00
913;DHT22;443;51.448;7.028;2023-11-19T00:28:00;14.50;84.30
913;DHT22;443;51.448;7.028;2023-11-19T00:30:26;14.50;83.90
913;DHT22;443;51.448;7.028;2023-11-19T00:32:53;14.50;83.80
913;DHT22;443;51.448;7.028;2023-11-19T00:35:20;14.50;84.30
913;DHT22;443;51.448;7.028;2023-11-19T00:37:47;14.50;84.50
913;DHT22;443;51.448;7.028;2023-11-19T00:40:16;14.50;83.90
913;DHT22;443;51.448;7.028;2023-11-19T00:42:43;14.50;83.90
913;DHT22;443;51.448;7.028;2023-11-19T00:45:10;14.50;84.00
913;DHT22;443;51.448;7.028;2023-11-19T00:47:38;14.50;84.20
913;DHT22;443;51.448;7.028;2023-11-19T00:50:06;14.50;84.00
913;DHT22;443;51.448;7.028;2023-11-19T00:52:34;14.60;84.20
913;DHT22;443;51.448;7.028;2023-11-19T00:55:02;14.50;85.10
913;DHT22;443;51.448;7.028;2023-11-19T00:57:30;14.50;84.30
913;DHT22;443;51.448;7.028;2023-11-19T00:59:58;14.50;85.10
913;DHT22;443;51.448;7.028;2023-11-19T01:02:25;14.50;84.20
913;DHT22;443;51.448;7.028;2023-11-19T01:04:52;14.50;84.90
913;DHT22;443;51.448;7.028;2023-11-19T01:07:18;14.50;85.40
913;DHT22;443;51.448;7.028;2023-11-19T01:09:47;14.50;84.90
913;DHT22;443;51.448;7.028;2023-11-19T01:12:14;14.50;84.80
913;DHT22;443;51.448;7.028;2023-11-19T01:14:42;14.60;85.30
913;DHT22;443;51.448;7.028;2023-11-19T01:17:08;14.60;84.80
913;DHT22;443;51.448;7.028;2023-11-19T01:19:35;14.50;85.20
913;DHT22;443;51.448;7.028;2023-11-19T01:22:02;14.60;84.40
913;DHT22;443;51.448;7.028;2023-11-19T01:24:28;14.60;85.30
913;DHT22;443;51.448;7.028;2023-11-19T01:26:56;14.60;84.40
913;DHT22;443;51.448;7.028;2023-11-19T01:29:25;14.60;84.50
913;DHT22;443;51.448;7.028;2023-11-19T01:31:53;14.60;84.80
913;DHT22;443;51.448;7.028;2023-11-19T01:34:20;14.60;85.00
913;DHT22;443;51.448;7.028;2023-11-19T01:36:47;14.60;84.20
913;DHT22;443;51.448;7.028;2023-11-19T01:39:14;14.70;84.50
913;DHT22;443;51.448;7.028;2023-11-19T01:41:42;14.70;84.50
913;DHT22;443;51.448;7.028;2023-11-19T01:44:09;14.70;84.50
913;DHT22;443;51.448;7.028;2023-11-19T01:46:38;14.60;85.10
913;DHT22;443;51.448;7.028;2023-11-19T01:49:08;14.60;85.10
913;DHT22;443;51.448;7.028;2023-11-19T01:51:35;14.60;85.40
913;DHT22;443;51.448;7.028;2023-11-19T01:54:02;14.60;84.80
913;DHT22;443;51.448;7.028;2023-11-19T01:56:30;14.60;84.80
913;DHT22;443;51.448;7.028;2023-11-19T01:58:58;14.70;85.20
913;DHT22;443;51.448;7.028;2023-11-19T02:01:25;14.70;84.80
913;DHT22;443;51.448;7.028;2023-11-19T02:03:52;14.70;85.00
913;DHT22;443;51.448;7.028;2023-11-19T02:06:20;14.70;84.50
913;DHT22;443;51.448;7.028;2023-11-19T02:08:47;14.70;84.40
913;DHT22;443;51.448;7.028;2023-11-19T02:11:14;14.70;85.50
913;DHT22;443;51.448;7.028;2023-11-19T02:13:41;14.70;84.80
913;DHT22;443;51.448;7.028;2023-11-19T02:16:09;14.70;84.80
913;DHT22;443;51.448;7.028;2023-11-19T02:18:37;14.70;85.00
913;DHT22;443;51.448;7.028;2023-11-19T02:21:05;14.70;84.70
913;DHT22;443;51.448;7.028;2023-11-19T02:23:33;14.70;84.40
913;DHT22;443;51.448;7.028;2023-11-19T02:26:05;14.70;84.10
913;DHT22;443;51.448;7.028;2023-11-19T02:28:36;14.70;83.90
913;DHT22;443;51.448;7.028;2023-11-19T02:31:03;14.70;85.40
913;DHT22;443;51.448;7.028;2023-11-19T02:33:30;14.70;84.40
913;DHT22;443;51.448;7.028;2023-11-19T02:35:57;14.70;84.90
913;DHT22;443;51.448;7.028;2023-11-19T02:38:24;14.70;84.20
913;DHT22;443;51.448;7.028;2023-11-19T02:40:51;14.70;85.80
913;DHT22;443;51.448;7.028;2023-11-19T02:43:18;14.70;84.80
913;DHT22;443;51.448;7.028;2023-11-19T02:45:46;14.70;85.10
913;DHT22;443;51.448;7.028;2023-11-19T02:48:13;14.80;84.80
913;DHT22;443;51.448;7.028;2023-11-19T02:50:41;14.70;84.20
913;DHT22;443;51.448;7.028;2023-11-19T02:53:08;14.70;84.10
913;DHT22;443;51.448;7.028;2023-11-19T02:55:34;14.80;86.00
913;DHT22;443;51.448;7.028;2023-11-19T02:58:03;14.70;85.10
913;DHT22;443;51.448;7.028;2023-11-19T03:00:35;14.70;85.10
913;DHT22;443;51.448;7.028;2023-11-19T03:03:08;14.70;84.30
913;DHT22;443;51.448;7.028;2023-11-19T03:05:45;14.70;85.10
913;DHT22;443;51.448;7.028;2023-11-19T03:08:14;14.70;85.40
913;DHT22;443;51.448;7.028;2023-11-19T03:10:41;14.70;85.50
913;DHT22;443;51.448;7.028;2023-11-19T03:13:11;14.70;85.00
913;DHT22;443;51.448;7.028;2023-11-19T03:15:38;14.70;85.40
913;DHT22;443;51.448;7.028;2023-11-19T03:18:05;14.80;84.40
913;DHT22;443;51.448;7.028;2023-11-19T03:20:33;14.70;85.90
913;DHT22;443;51.448;7.028;2023-11-19T03:23:00;14.80;84.60
913;DHT22;443;51.448;7.028;2023-11-19T03:25:27;14.80;84.70
913;DHT22;443;51.448;7.028;2023-11-19T03:27:58;14.80;84.40
913;DHT22;443;51.448;7.028;2023-11-19T03:30:25;14.80;84.80
913;DHT22;443;51.448;7.028;2023-11-19T03:32:52;14.80;84.60
913;DHT22;443;51.448;7.028;2023-11-19T03:35:19;14.80;83.60
913;DHT22;443;51.448;7.028;2023-11-19T03:37:47;14.80;83.40
913;DHT22;443;51.448;7.028;2023-11-19T03:40:14;14.80;83.10
913;DHT22;443;51.448;7.028;2023-11-19T03:42:40;14.80;82.90
913;DHT22;443;51.448;7.028;2023-11-19T03:45:08;14.80;84.20
913;DHT22;443;51.448;7.028;2023-11-19T03:47:34;14.80;84.40
913;DHT22;443;51.448;7.028;2023-11-19T03:50:04;14.70;84.30
913;DHT22;443;51.448;7.028;2023-11-19T03:52:31;14.80;84.40
913;DHT22;443;51.448;7.028;2023-11-19T03:54:59;14.70;84.60
913;DHT22;443;51.448;7.028;2023-11-19T03:57:26;14.70;84.10
913;DHT22;443;51.448;7.028;2023-11-19T03:59:53;14.70;84.40
913;DHT22;443;51.448;7.028;2023-11-19T04:02:21;14.70;84.00
913;DHT22;443;51.448;7.028;2023-11-19T04:04:47;14.80;83.30
913;DHT22;443;51.448;7.028;2023-11-19T04:07:14;14.70;84.50
913;DHT22;443;51.448;7.028;2023-11-19T04:09:41;14.70;84.10
913;DHT22;443;51.448;7.028;2023-11-19T04:12:10;14.70;84.70
913;DHT22;443;51.448;7.028;2023-11-19T04:14:36;14.70;83.90
913;DHT22;443;51.448;7.028;2023-11-19T04:17:03;14.70;84.30
913;DHT22;443;51.448;7.028;2023-11-19T04:19:30;14.70;84.20
913;DHT22;443;51.448;7.028;2023-11-19T04:21:58;14.70;84.50
913;DHT22;443;51.448;7.028;2023-11-19T04:24:24;14.70;84.30
913;DHT22;443;51.448;7.028;2023-11-19T04:26:51;14.70;85.00
913;DHT22;443;51.448;7.028;2023-11-19T04:29:19;14.60;84.00
913;DHT22;443;51.448;7.028;2023-11-19T04:31:46;14.70;83.80
913;DHT22;443;51.448;7.028;2023-11-19T04:34:13;14.70;84.40
913;DHT22;443;51.448;7.028;2023-11-19T04:36:40;14.70;83.70
913;DHT22;443;51.448;7.028;2023-11-19T04:39:06;14.70;83.80
913;DHT22;443;51.448;7.028;2023-11-19T04:41:45;14.70;83.20
913;DHT22;443;51.448;7.028;2023-11-19T04:44:12;14.70;83.20
913;DHT22;443;51.448;7.028;2023-11-19T04:46:40;14.70;83.10
913;DHT22;443;51.448;7.028;2023-11-19T04:49:08;14.70;83.50
913;DHT22;443;51.448;7.028;2023-11-19T04:51:38;14.60;84.10
913;DHT22;443;51.448;7.028;2023-11-19T04:54:05;14.70;84.00
913;DHT22;443;51.448;7.028;2023-11-19T04:56:32;14.70;84.30
913;DHT22;443;51.448;7.028;2023-11-19T04:58:59;14.70;83.50
913;DHT22;443;51.448;7.028;2023-11-19T05:01:25;14.70;83.80
913;DHT22;443;51.448;7.028;2023-11-19T05:03:55;14.70;83.80
913;DHT22;443;51.448;7.028;2023-11-19T05:06:22;14.70;83.10
913;DHT22;443;51.448;7.028;2023-11-19T05:08:50;14.70;83.30
913;DHT22;443;51.448;7.028;2023-11-19T05:11:16;14.60;83.90
913;DHT22;443;51.448;7.028;2023-11-19T05:13:43;14.60;84.30
913;DHT22;443;51.448;7.028;2023-11-19T05:16:11;14.60;84.20
913;DHT22;443;51.448;7.028;2023-11-19T05:18:39;14.60;84.50
913;DHT22;443;51.448;7.028;2023-11-19T05:21:07;14.60;84.20
913;DHT22;443;51.448;7.028;2023-11-19T05:23:34;14.70;84.10
913;DHT22;443;51.448;7.028;2023-11-19T05:26:01;14.60;84.10
913;DHT22;443;51.448;7.028;2023-11-19T05:28:28;14.70;83.60
913;DHT22;443;51.448;7.028;2023-11-19T05:30:54;14.70;84.20
913;DHT22;443;51.448;7.028;2023-11-19T05:33:21;14.70;84.20
913;DHT22;443;51.448;7.028;2023-11-19T05:35:48;14.70;84.30
913;DHT22;443;51.448;7.028;2023-11-19T05:38:16;14.70;83.90
913;DHT22;443;51.448;7.028;2023-11-19T05:40:43;14.70;84.20
913;DHT22;443;51.448;7.028;2023-11-19T05:43:09;14.70;84.30
913;DHT22;443;51.448;7.028;2023-11-19T05:45:36;14.70;83.80
913;DHT22;443;51.448;7.028;2023-11-19T05:48:03;14.70;84.10
913;DHT22;443;51.448;7.028;2023-11-19T05:50:31;14.70;84.10
913;DHT22;443;51.448;7.028;2023-11-19T05:52:57;14.80;83.70
913;DHT22;443;51.448;7.028;2023-11-19T05:55:25;14.80;84.00
913;DHT22;443;51.448;7.028;2023-11-19T05:57:53;14.80;83.90
913;DHT22;443;51.448;7.028;2023-11-19T06:00:20;14.80;83.40
913;DHT22;443;51.448;7.028;2023-11-19T06:02:47;14.80;83.30
913;DHT22;443;51.448;7.028;2023-11-19T06:05:13;14.80;83.60
913;DHT22;443;51.448;7.028;2023-11-19T06:07:40;14.90;83.30
913;DHT22;443;51.448;7.028;2023-11-19T06:10:07;14.90;83.40
913;DHT22;443;51.448;7.028;2023-11-19T06:12:36;14.80;83.60
913;DHT22;443;51.448;7.028;2023-11-19T06:15:05;14.90;83.30
913;DHT22;443;51.448;7.028;2023-11-19T06:17:32;14.90;83.30
913;DHT22;443;51.448;7.028;2023-11-19T06:19:58;14.80;83.30
913;DHT22;443;51.448;7.028;2023-11-19T06:22:25;14.80;83.40
913;DHT22;443;51.448;7.028;2023-11-19T06:24:52;14.80;83.30
913;DHT22;443;51.448;7.028;2023-11-19T06:27:18;14.90;83.80
913;DHT22;443;51.448;7.028;2023-11-19T06:29:46;14.90;83.00
913;DHT22;443;51.448;7.028;2023-11-19T06:32:13;14.80;83.10
913;DHT22;443;51.448;7.028;2023-11-19T06:34:41;14.90;83.10
913;DHT22;443;51.448;7.028;2023-11-19T06:37:08;14.90;83.20
913;DHT22;443;51.448;7.028;2023-11-19T06:39:35;14.90;83.00
913;DHT22;443;51.448;7.028;2023-11-19T06:42:03;14.90;83.30
913;DHT22;443;51.448;7.028;2023-11-19T06:44:29;14.90;82.90
913;DHT22;443;51.448;7.028;2023-11-19T06:46:57;14.90;82.50
913;DHT22;443;51.448;7.028;2023-11-19T06:49:24;14.90;82.40
913;DHT22;443;51.448;7.028;2023-11-19T06:51:51;14.90;82.50
913;DHT22;443;51.448;7.028;2023-11-19T06:54:18;14.90;82.40
913;DHT22;443;51.448;7.028;2023-11-19T06:56:44;14.90;82.40
913;DHT22;443;51.448;7.028;2023-11-19T06:59:11;14.90;82.50
913;DHT22;443;51.448;7.028;2023-11-19T07:01:38;14.80;82.40
913;DHT22;443;51.448;7.028;2023-11-19T07:04:06;14.80;82.40
913;DHT22;443;51.448;7.028;2023-11-19T07:06:34;14.90;82.60
913;DHT22;443;51.448;7.028;2023-11-19T07:09:01;14.80;81.90
913;DHT22;443;51.448;7.028;2023-11-19T07:11:35;14.80;82.50
913;DHT22;443;51.448;7.028;2023-11-19T07:14:02;14.90;82.30
913;DHT22;443;51.448;7.028;2023-11-19T07:16:29;14.80;82.50
913;DHT22;443;51.448;7.028;2023-11-19T07:18:56;14.90;82.40
913;DHT22;443;51.448;7.028;2023-11-19T07:21:25;14.90;82.40
913;DHT22;443;51.448;7.028;2023-11-19T07:23:53;14.80;82.10
913;DHT22;443;51.448;7.028;2023-11-19T07:26:20;14.70;81.60
913;DHT22;443;51.448;7.028;2023-11-19T07:28:47;14.80;82.60
913;DHT22;443;51.448;7.028;2023-11-19T07:31:14;14.90;82.50
913;DHT22;443;51.448;7.028;2023-11-19T07:33:40;14.90;82.50
913;DHT22;443;51.448;7.028;2023-11-19T07:36:08;14.90;82.70
913;DHT22;443;51.448;7.028;2023-11-19T07:38:36;14.90;82.20
913;DHT22;443;51.448;7.028;2023-11-19T07:41:04;14.90;81.90
913;DHT22;443;51.448;7.028;2023-11-19T07:43:32;14.80;81.90
913;DHT22;443;51.448;7.028;2023-11-19T07:45:59;14.80;81.70
913;DHT22;443;51.448;7.028;2023-11-19T07:48:26;14.80;82.30
913;DHT22;443;51.448;7.028;2023-11-19T07:50:52;14.80;81.80
913;DHT22;443;51.448;7.028;2023-11-19T07:53:19;14.80;81.90
913;DHT22;443;51.448;7.028;2023-11-19T07:55:47;14.90;81.90
913;DHT22;443;51.448;7.028;2023-11-19T07:58:14;14.90;81.90
913;DHT22;443;51.448;7.028;2023-11-19T08:00:41;14.80;81.70
913;DHT22;443;51.448;7.028;2023-11-19T08:03:08;14.90;82.20
913;DHT22;443;51.448;7.028;2023-11-19T08:05:34;14.80;81.60
913;DHT22;443;51.448;7.028;2023-11-19T08:08:01;14.90;82.20
913;DHT22;443;51.448;7.028;2023-11-19T08:10:28;14.90;81.80
913;DHT22;443;51.448;7.028;2023-11-19T08:12:56;14.90;81.60
913;DHT22;443;51.448;7.028;2023-11-19T08:15:23;14.90;81.80
913;DHT22;443;51.448;7.028;2023-11-19T08:17:50;14.80;81.80
913;DHT22;443;51.448;7.028;2023-11-19T08:20:16;14.80;81.90
913;DHT22;443;51.448;7.028;2023-11-19T08:22:43;14.90;81.70
913;DHT22;443;51.448;7.028;2023-11-19T08:25:10;14.90;81.50
913;DHT22;443;51.448;7.028;2023-11-19T08:27:37;14.80;82.10
913;DHT22;443;51.448;7.028;2023-11-19T08:30:06;14.80;81.70
913;DHT22;443;51.448;7.028;2023-11-19T08:32:33;14.90;82.50
913;DHT22;443;51.448;7.028;2023-11-19T08:35:01;14.80;81.10
913;DHT22;443;51.448;7.028;2023-11-19T08:37:27;14.90;82.20
913;DHT22;443;51.448;7.028;2023-11-19T08:39:54;14.90;82.20
913;DHT22;443;51.448;7.028;2023-11-19T08:42:21;14.90;81.90
913;DHT22;443;51.448;7.028;2023-11-19T08:44:49;14.90;81.80
913;DHT22;443;51.448;7.028;2023-11-19T08:47:17;15.00;82.20
913;DHT22;443;51.448;7.028;2023-11-19T08:49:44;15.00;81.50
913;DHT22;443;51.448;7.028;2023-11-19T08:52:11;15.00;81.90
913;DHT22;443;51.448;7.028;2023-11-19T08:54:38;15.00;81.30
913;DHT22;443;51.448;7.028;2023-11-19T08:57:08;15.00;81.60
913;DHT22;443;51.448;7.028;2023-11-19T08:59:35;15.00;81.30
913;DHT22;443;51.448;7.028;2023-11-19T09:02:03;15.00;81.50
913;DHT22;443;51.448;7.028;2023-11-19T09:04:31;15.00;81.50
913;DHT22;443;51.448;7.028;2023-11-19T09:06:58;15.00;81.60
913;DHT22;443;51.448;7.028;2023-11-19T09:09:25;15.00;81.50
913;DHT22;443;51.448;7.028;2023-11-19T09:11:52;15.10;81.10
913;DHT22;443;51.448;7.028;2023-11-19T09:14:19;15.20;81.60
913;DHT22;443;51.448;7.028;2023-11-19T09:16:49;15.20;81.10
913;DHT22;443;51.448;7.028;2023-11-19T09:19:16;15.10;80.40
913;DHT22;443;51.448;7.028;2023-11-19T09:21:44;15.10;81.10
913;DHT22;443;51.448;7.028;2023-11-19T09:24:11;15.00;81.10
913;DHT22;443;51.448;7.028;2023-11-19T09:26:38;15.00;81.60
913;DHT22;443;51.448;7.028;2023-11-19T09:29:06;15.00;81.40
913;DHT22;443;51.448;7.028;2023-11-19T09:31:34;15.00;81.40
913;DHT22;443;51.448;7.028;2023-11-19T09:34:01;15.00;81.30
913;DHT22;443;51.448;7.028;2023-11-19T09:36:27;15.10;81.50
913;DHT22;443;51.448;7.028;2023-11-19T09:38:56;15.10;81.60
913;DHT22;443;51.448;7.028;2023-11-19T09:41:23;15.10;80.70
913;DHT22;443;51.448;7.028;2023-11-19T09:43:53;15.10;81.20
913;DHT22;443;51.448;7.028;2023-11-19T09:46:21;15.10;80.80
913;DHT22;443;51.448;7.028;2023-11-19T09:48:51;15.10;81.30
913;DHT22;443;51.448;7.028;2023-11-19T09:51:20;15.20;81.60
913;DHT22;443;51.448;7.028;2023-11-19T09:53:47;15.20;81.30
913;DHT22;443;51.448;7.028;2023-11-19T09:56:15;15.30;81.10
913;DHT22;443;51.448;7.028;2023-11-19T09:58:42;15.30;81.00
913;DHT22;443;51.448;7.028;2023-11-19T10:01:09;15.20;80.10
913;DHT22;443;51.448;7.028;2023-11-19T10:03:38;15.30;80.30
913;DHT22;443;51.448;7.028;2023-11-19T10:06:07;15.30;80.50
913;DHT22;443;51.448;7.028;2023-11-19T10:08:34;15.30;80.90
913;DHT22;443;51.448;7.028;2023-11-19T10:11:01;15.30;80.40
913;DHT22;443;51.448;7.028;2023-11-19T10:13:29;15.30;80.60
913;DHT22;443;51.448;7.028;2023-11-19T10:15:56;15.30;80.50
913;DHT22;443;51.448;7.028;2023-11-19T10:18:25;15.30;80.30
913;DHT22;443;51.448;7.028;2023-11-19T10:20:52;15.30;80.20
913;DHT22;443;51.448;7.028;2023-11-19T10:23:20;15.30;80.10
913;DHT22;443;51.448;7.028;2023-11-19T10:25:47;15.30;81.10
913;DHT22;443;51.448;7.028;2023-11-19T10:28:15;15.30;79.80
913;DHT22;443;51.448;7.028;2023-11-19T10:30:44;15.30;80.10
913;DHT22;443;51.448;7.028;2023-11-19T10:33:12;15.30;80.50
913;DHT22;443;51.448;7.028;2023-11-19T10:35:51;15.30;80.00
913;DHT22;443;51.448;7.028;2023-11-19T10:38:18;15.30;79.90
913;DHT22;443;51.448;7.028;2023-11-19T10:40:46;15.40;80.10
913;DHT22;443;51.448;7.028;2023-11-19T10:43:13;15.30;79.60
913;DHT22;443;51.448;7.028;2023-11-19T10:45:40;15.30;80.10
913;DHT22;443;51.448;7.028;2023-11-19T10:48:09;15.30;80.10
913;DHT22;443;51.448;7.028;2023-11-19T10:50:37;15.40;80.70
913;DHT22;443;51.448;7.028;2023-11-19T10:53:05;15.40;80.10
913;DHT22;443;51.448;7.028;2023-11-19T10:55:33;15.30;80.10
913;DHT22;443;51.448;7.028;2023-11-19T10:58:02;15.30;79.70
913;DHT22;443;51.448;7.028;2023-11-19T11:00:34;15.40;80.70
913;DHT22;443;51.448;7.028;2023-11-19T11:03:10;15.30;79.40
913;DHT22;443;51.448;7.028;2023-11-19T11:05:38;15.30;79.90
913;DHT22;443;51.448;7.028;2023-11-19T11:08:06;15.30;80.00
913;DHT22;443;51.448;7.028;2023-11-19T11:10:39;15.30;81.00
913;DHT22;443;51.448;7.028;2023-11-19T11:13:10;15.30;80.10
913;DHT22;443;51.448;7.028;2023-11-19T11:15:39;15.30;80.30
913;DHT22;443;51.448;7.028;2023-11-19T11:18:10;15.30;80.20
913;DHT22;443;51.448;7.028;2023-11-19T11:20:37;15.40;80.90
913;DHT22;443;51.448;7.028;2023-11-19T11:26:15;15.30;80.30
913;DHT22;443;51.448;7.028;2023-11-19T11:28:52;15.30;79.60
913;DHT22;443;51.448;7.028;2023-11-19T11:31:31;15.30;79.00
913;DHT22;443;51.448;7.028;2023-11-19T11:34:16;15.30;80.00
913;DHT22;443;51.448;7.028;2023-11-19T11:36:56;15.40;80.70
913;DHT22;443;51.448;7.028;2023-11-19T11:39:24;15.40;80.30
913;DHT22;443;51.448;7.028;2023-11-19T11:44:59;15.40;79.80
913;DHT22;443;51.448;7.028;2023-11-19T11:50:30;15.40;79.10
913;DHT22;443;51.448;7.028;2023-11-19T11:53:14;15.40;79.60
913;DHT22;443;51.448;7.028;2023-11-19T11:55:53;15.40;79.00
913;DHT22;443;51.448;7.028;2023-11-19T11:58:25;15.40;79.80
913;DHT22;443;51.448;7.028;2023-11-19T12:00:52;15.40;79.80
913;DHT22;443;51.448;7.028;2023-11-19T12:03:20;15.40;79.40
913;DHT22;443;51.448;7.028;2023-11-19T12:05:49;15.40;78.90
913;DHT22;443;51.448;7.028;2023-11-19T12:08:19;15.40;79.60
913;DHT22;443;51.448;7.028;2023-11-19T12:10:48;15.50;79.50
913;DHT22;443;51.448;7.028;2023-11-19T12:13:15;15.50;79.20
913;DHT22;443;51.448;7.028;2023-11-19T12:16:09;15.50;79.50
913;DHT22;443;51.448;7.028;2023-11-19T12:18:39;15.50;79.50
913;DHT22;443;51.448;7.028;2023-11-19T12:21:07;15.50;79.50
913;DHT22;443;51.448;7.028;2023-11-19T12:23:44;15.50;79.50
913;DHT22;443;51.448;7.028;2023-11-19T12:26:21;15.50;79.40
913;DHT22;443;51.448;7.028;2023-11-19T12:28:58;15.50;79.80
913;DHT22;443;51.448;7.028;2023-11-19T12:31:24;15.50;79.80
913;DHT22;443;51.448;7.028;2023-11-19T12:33:51;15.50;80.00
913;DHT22;443;51.448;7.028;2023-11-19T12:36:20;15.50;79.40
913;DHT22;443;51.448;7.028;2023-11-19T12:38:46;15.50;79.80
913;DHT22;443;51.448;7.028;2023-11-19T12:41:13;15.50;78.50
913;DHT22;443;51.448;7.028;2023-11-19T12:43:43;15.50;79.60
913;DHT22;443;51.448;7.028;2023-11-19T12:46:20;15.50;79.90
913;DHT22;443;51.448;7.028;2023-11-19T12:48:47;15.50;79.30
913;DHT22;443;51.448;7.028;2023-11-19T12:51:14;15.50;79.20
913;DHT22;443;51.448;7.028;2023-11-19T12:53:51;15.50;80.30
913;DHT22;443;51.448;7.028;2023-11-19T12:56:20;15.40;80.20
913;DHT22;443;51.448;7.028;2023-11-19T12:58:48;15.40;80.70
913;DHT22;443;51.448;7.028;2023-11-19T13:01:16;15.50;80.80
913;DHT22;443;51.448;7.028;2023-11-19T13:03:44;15.40;80.50
913;DHT22;443;51.448;7.028;2023-11-19T13:06:12;15.50;81.00
913;DHT22;443;51.448;7.028;2023-11-19T13:08:40;15.40;80.20
913;DHT22;443;51.448;7.028;2023-11-19T13:11:09;15.40;80.20
913;DHT22;443;51.448;7.028;2023-11-19T13:13:54;15.30;80.10
913;DHT22;443;51.448;7.028;2023-11-19T13:16:21;15.30;80.70
913;DHT22;443;51.448;7.028;2023-11-19T13:18:48;15.40;80.40
913;DHT22;443;51.448;7.028;2023-11-19T13:21:15;15.30;80.00
913;DHT22;443;51.448;7.028;2023-11-19T13:23:42;15.40;80.60
913;DHT22;443;51.448;7.028;2023-11-19T13:26:10;15.40;80.30
913;DHT22;443;51.448;7.028;2023-11-19T13:28:37;15.40;80.40
913;DHT22;443;51.448;7.028;2023-11-19T13:31:05;15.40;80.50
913;DHT22;443;51.448;7.028;2023-11-19T13:33:31;15.40;80.30
913;DHT22;443;51.448;7.028;2023-11-19T13:35:58;15.50;81.00
913;DHT22;443;51.448;7.028;2023-11-19T13:38:27;15.40;80.40
913;DHT22;443;51.448;7.028;2023-11-19T13:40:54;15.40;80.10
913;DHT22;443;51.448;7.028;2023-11-19T13:43:22;15.40;80.10
913;DHT22;443;51.448;7.028;2023-11-19T13:45:48;15.50;80.40
913;DHT22;443;51.448;7.028;2023-11-19T13:48:16;15.50;80.10
913;DHT22;443;51.448;7.028;2023-11-19T13:50:43;15.50;80.20
913;DHT22;443;51.448;7.028;2023-11-19T13:53:10;15.50;80.40
913;DHT22;443;51.448;7.028;2023-11-19T13:55:37;15.50;80.40
913;DHT22;443;51.448;7.028;2023-11-19T13:58:04;15.50;80.10
913;DHT22;443;51.448;7.028;2023-11-19T14:00:32;15.40;80.30
913;DHT22;443;51.448;7.028;2023-11-19T14:02:59;15.40;80.00
913;DHT22;443;51.448;7.028;2023-11-19T14:05:26;15.40;80.20
913;DHT22;443;51.448;7.028;2023-11-19T14:07:53;15.40;80.50
913;DHT22;443;51.448;7.028;2023-11-19T14:10:22;15.40;79.80
913;DHT22;443;51.448;7.028;2023-11-19T14:12:49;15.40;80.40
913;DHT22;443;51.448;7.028;2023-11-19T14:15:16;15.40;80.20
913;DHT22;443;51.448;7.028;2023-11-19T14:17:44;15.40;80.00
913;DHT22;443;51.448;7.028;2023-11-19T14:20:11;15.40;80.20
913;DHT22;443;51.448;7.028;2023-11-19T14:22:39;15.40;80.20
913;DHT22;443;51.448;7.028;2023-11-19T14:25:07;15.40;80.50
913;DHT22;443;51.448;7.028;2023-11-19T14:27:35;15.40;80.60
913;DHT22;443;51.448;7.028;2023-11-19T14:30:04;15.40;80.70
913;DHT22;443;51.448;7.028;2023-11-19T14:32:32;15.40;80.80
913;DHT22;443;51.448;7.028;2023-11-19T14:35:00;15.30;80.80
913;DHT22;443;51.448;7.028;2023-11-19T14:37:26;15.30;80.80
913;DHT22;443;51.448;7.028;2023-11-19T14:39:53;15.30;81.00
913;DHT22;443;51.448;7.028;2023-11-19T14:42:20;15.30;81.20
913;DHT22;443;51.448;7.028;2023-11-19T14:44:48;15.30;81.20
913;DHT22;443;51.448;7.028;2023-11-19T14:47:14;15.30;81.00
913;DHT22;443;51.448;7.028;2023-11-19T14:49:41;15.30;80.90
913;DHT22;443;51.448;7.028;2023-11-19T14:52:09;15.30;81.20
913;DHT22;443;51.448;7.028;2023-11-19T14:54:36;15.20;80.60
913;DHT22;443;51.448;7.028;2023-11-19T14:57:04;15.20;80.90
913;DHT22;443;51.448;7.028;2023-11-19T14:59:30;15.30;81.30
913;DHT22;443;51.448;7.028;2023-11-19T15:01:58;15.30;80.60
913;DHT22;443;51.448;7.028;2023-11-19T15:04:25;15.30;81.30
913;DHT22;443;51.448;7.028;2023-11-19T15:06:52;15.30;80.90
913;DHT22;443;51.448;7.028;2023-11-19T15:09:20;15.30;80.90
913;DHT22;443;51.448;7.028;2023-11-19T15:11:47;15.30;81.00
913;DHT22;443;51.448;7.028;2023-11-19T15:14:14;15.30;81.30
913;DHT22;443;51.448;7.028;2023-11-19T15:16:44;15.30;81.00
913;DHT22;443;51.448;7.028;2023-11-19T15:19:11;15.30;81.10
913;DHT22;443;51.448;7.028;2023-11-19T15:21:39;15.20;80.70
913;DHT22;443;51.448;7.028;2023-11-19T15:24:08;15.30;81.90
913;DHT22;443;51.448;7.028;2023-11-19T15:26:36;15.20;80.80
913;DHT22;443;51.448;7.028;2023-11-19T15:29:03;15.30;81.70
913;DHT22;443;51.448;7.028;2023-11-19T15:31:30;15.20;81.50
913;DHT22;443;51.448;7.028;2023-11-19T15:33:57;15.20;81.50
913;DHT22;443;51.448;7.028;2023-11-19T15:36:24;15.20;82.00
913;DHT22;443;51.448;7.028;2023-11-19T15:38:51;15.20;82.00
913;DHT22;443;51.448;7.028;2023-11-19T15:41:20;15.10;81.90
913;DHT22;443;51.448;7.028;2023-11-19T15:43:48;15.10;82.10
913;DHT22;443;51.448;7.028;2023-11-19T15:46:15;15.10;82.10
913;DHT22;443;51.448;7.028;2023-11-19T15:48:42;15.10;82.10
913;DHT22;443;51.448;7.028;2023-11-19T15:51:09;15.10;82.20
913;DHT22;443;51.448;7.028;2023-11-19T15:53:36;15.00;82.00
913;DHT22;443;51.448;7.028;2023-11-19T15:56:04;15.00;82.00
913;DHT22;443;51.448;7.028;2023-11-19T15:58:31;15.00;82.30
913;DHT22;443;51.448;7.028;2023-11-19T16:00:59;15.00;82.40
913;DHT22;443;51.448;7.028;2023-11-19T16:03:26;15.00;82.40
913;DHT22;443;51.448;7.028;2023-11-19T16:05:53;15.00;82.30
913;DHT22;443;51.448;7.028;2023-11-19T16:08:20;15.10;82.30
913;DHT22;443;51.448;7.028;2023-11-19T16:10:48;15.00;82.40
913;DHT22;443;51.448;7.028;2023-11-19T16:13:14;15.00;82.20
913;DHT22;443;51.448;7.028;2023-11-19T16:15:41;15.00;82.60
913;DHT22;443;51.448;7.028;2023-11-19T16:18:09;15.00;82.60
913;DHT22;443;51.448;7.028;2023-11-19T16:20:39;15.00;82.50
913;DHT22;443;51.448;7.028;2023-11-19T16:23:08;15.00;82.60
913;DHT22;443;51.448;7.028;2023-11-19T16:25:35;15.10;82.40
913;DHT22;443;51.448;7.028;2023-11-19T16:28:03;15.10;82.20
913;DHT22;443;51.448;7.028;2023-11-19T16:30:29;15.00;82.30
913;DHT22;443;51.448;7.028;2023-11-19T16:32:57;15.10;82.50
913;DHT22;443;51.448;7.028;2023-11-19T16:35:26;15.10;82.50
913;DHT22;443;51.448;7.028;2023-11-19T16:37:53;15.00;82.40
913;DHT22;443;51.448;7.028;2023-11-19T16:40:20;15.00;82.90
913;DHT22;443;51.448;7.028;2023-11-19T16:42:47;15.00;82.60
913;DHT22;443;51.448;7.028;2023-11-19T16:45:14;15.00;82.70
913;DHT22;443;51.448;7.028;2023-11-19T16:47:41;15.00;82.50